< < Back
Terminal Aerodrome Forecast


Current Version              Previous Versions:   1  2  3  4  5  6  7  8  9  

Terminal Aerodrome Forecast

635
FTUS42 KCAE 011700
TAFCAE
TAF
KCAE 011725Z 0118/0218 18007KT P6SM SCT050
     FM020200 VRB04KT P6SM SCT250=



Latest METAR

465
SAUS80 KWBC 011900 RRI
MTRCAE
METAR KCAE 011856Z VRB03KT 10SM SCT047 SCT110 SCT220 36/19 A3005 RMK AO2
LTG DSNT S SLP171 T03610194


USA.gov is the U.S. government's official web portal to all federal, state and local government web resources and services.